sensor_id;sensor_type;location;lat;lon;timestamp;temperature;humidity
7942;HTU21D;4016;50.758;7.150;2023-04-24T00:00:14;11.77;113.22
7942;HTU21D;4016;50.758;7.150;2023-04-24T00:05:15;11.77;113.65
7942;HTU21D;4016;50.758;7.150;2023-04-24T00:10:17;11.98;111.39
7942;HTU21D;4016;50.758;7.150;2023-04-24T00:15:17;11.90;111.75
7942;HTU21D;4016;50.758;7.150;2023-04-24T00:20:18;11.77;113.19
7942;HTU21D;4016;50.758;7.150;2023-04-24T00:25:19;11.83;113.15
7942;HTU21D;4016;50.758;7.150;2023-04-24T00:30:19;11.99;111.36
7942;HTU21D;4016;50.758;7.150;2023-04-24T00:35:19;12.06;111.04
7942;HTU21D;4016;50.758;7.150;2023-04-24T00:40:20;11.92;112.10
7942;HTU21D;4016;50.758;7.150;2023-04-24T00:45:20;11.94;112.05
7942;HTU21D;4016;50.758;7.150;2023-04-24T00:50:21;12.00;112.41
7942;HTU21D;4016;50.758;7.150;2023-04-24T00:55:21;12.02;111.69
7942;HTU21D;4016;50.758;7.150;2023-04-24T01:00:22;11.93;113.07
7942;HTU21D;4016;50.758;7.150;2023-04-24T01:05:22;11.86;114.21
7942;HTU21D;4016;50.758;7.150;2023-04-24T01:10:24;11.79;114.61
7942;HTU21D;4016;50.758;7.150;2023-04-24T01:15:25;11.87;113.94
7942;HTU21D;4016;50.758;7.150;2023-04-24T01:20:26;11.96;113.72
7942;HTU21D;4016;50.758;7.150;2023-04-24T01:25:28;12.03;113.57
7942;HTU21D;4016;50.758;7.150;2023-04-24T01:30:29;11.96;113.95
7942;HTU21D;4016;50.758;7.150;2023-04-24T01:35:30;11.93;115.01
7942;HTU21D;4016;50.758;7.150;2023-04-24T01:40:31;11.93;110.85
7942;HTU21D;4016;50.758;7.150;2023-04-24T01:45:31;11.75;109.15
7942;HTU21D;4016;50.758;7.150;2023-04-24T01:50:32;11.67;104.21
7942;HTU21D;4016;50.758;7.150;2023-04-24T01:55:33;11.60;104.97
7942;HTU21D;4016;50.758;7.150;2023-04-24T02:00:33;11.67;100.23
7942;HTU21D;4016;50.758;7.150;2023-04-24T02:05:33;11.54;100.98
7942;HTU21D;4016;50.758;7.150;2023-04-24T02:10:34;11.33;102.73
7942;HTU21D;4016;50.758;7.150;2023-04-24T02:15:34;11.24;104.55
7942;HTU21D;4016;50.758;7.150;2023-04-24T02:20:36;11.27;101.93
7942;HTU21D;4016;50.758;7.150;2023-04-24T02:25:37;11.22;100.00
7942;HTU21D;4016;50.758;7.150;2023-04-24T02:30:37;11.05;99.26
7942;HTU21D;4016;50.758;7.150;2023-04-24T02:35:37;10.89;99.71
7942;HTU21D;4016;50.758;7.150;2023-04-24T02:40:38;10.72;100.51
7942;HTU21D;4016;50.758;7.150;2023-04-24T02:45:38;10.49;101.03
7942;HTU21D;4016;50.758;7.150;2023-04-24T02:50:39;10.37;101.32
7942;HTU21D;4016;50.758;7.150;2023-04-24T02:55:39;10.19;102.72
7942;HTU21D;4016;50.758;7.150;2023-04-24T03:00:40;10.11;103.67
7942;HTU21D;4016;50.758;7.150;2023-04-24T03:05:40;10.11;104.28
7942;HTU21D;4016;50.758;7.150;2023-04-24T03:10:41;9.94;105.34
7942;HTU21D;4016;50.758;7.150;2023-04-24T03:15:41;9.99;104.26
7942;HTU21D;4016;50.758;7.150;2023-04-24T03:20:42;9.91;104.49
7942;HTU21D;4016;50.758;7.150;2023-04-24T03:25:42;9.72;105.20
7942;HTU21D;4016;50.758;7.150;2023-04-24T03:30:43;9.68;104.92
7942;HTU21D;4016;50.758;7.150;2023-04-24T03:35:43;9.57;105.29
7942;HTU21D;4016;50.758;7.150;2023-04-24T03:40:43;9.42;106.45
7942;HTU21D;4016;50.758;7.150;2023-04-24T03:45:44;9.39;106.22
7942;HTU21D;4016;50.758;7.150;2023-04-24T03:50:44;9.42;105.69
7942;HTU21D;4016;50.758;7.150;2023-04-24T03:55:45;9.35;105.22
7942;HTU21D;4016;50.758;7.150;2023-04-24T04:00:46;9.39;105.36
7942;HTU21D;4016;50.758;7.150;2023-04-24T04:05:48;9.27;106.74
7942;HTU21D;4016;50.758;7.150;2023-04-24T04:10:48;9.16;107.39
7942;HTU21D;4016;50.758;7.150;2023-04-24T04:15:49;9.23;107.27
7942;HTU21D;4016;50.758;7.150;2023-04-24T04:20:49;9.24;107.22
7942;HTU21D;4016;50.758;7.150;2023-04-24T04:25:49;9.16;107.97
7942;HTU21D;4016;50.758;7.150;2023-04-24T04:30:52;9.01;109.30
7942;HTU21D;4016;50.758;7.150;2023-04-24T04:35:55;9.21;107.78
7942;HTU21D;4016;50.758;7.150;2023-04-24T04:40:56;9.07;109.52
7942;HTU21D;4016;50.758;7.150;2023-04-24T04:45:57;9.22;108.52
7942;HTU21D;4016;50.758;7.150;2023-04-24T04:50:58;9.11;109.88
7942;HTU21D;4016;50.758;7.150;2023-04-24T04:55:58;9.18;109.56
7942;HTU21D;4016;50.758;7.150;2023-04-24T05:00:59;9.25;108.97
7942;HTU21D;4016;50.758;7.150;2023-04-24T05:06:00;9.32;107.85
7942;HTU21D;4016;50.758;7.150;2023-04-24T05:11:00;9.50;106.56
7942;HTU21D;4016;50.758;7.150;2023-04-24T05:16:01;9.52;107.03
7942;HTU21D;4016;50.758;7.150;2023-04-24T05:21:01;9.37;108.72
7942;HTU21D;4016;50.758;7.150;2023-04-24T05:26:02;9.46;107.85
7942;HTU21D;4016;50.758;7.150;2023-04-24T05:31:02;9.49;108.41
7942;HTU21D;4016;50.758;7.150;2023-04-24T05:36:03;9.51;109.08
7942;HTU21D;4016;50.758;7.150;2023-04-24T05:41:05;9.51;109.81
7942;HTU21D;4016;50.758;7.150;2023-04-24T05:46:05;9.57;109.25
7942;HTU21D;4016;50.758;7.150;2023-04-24T05:51:06;9.64;108.46
7942;HTU21D;4016;50.758;7.150;2023-04-24T05:56:06;9.55;109.50
7942;HTU21D;4016;50.758;7.150;2023-04-24T06:01:07;9.64;108.69
7942;HTU21D;4016;50.758;7.150;2023-04-24T06:06:08;9.77;107.01
7942;HTU21D;4016;50.758;7.150;2023-04-24T06:11:08;9.61;109.26
7942;HTU21D;4016;50.758;7.150;2023-04-24T06:16:08;9.66;109.32
7942;HTU21D;4016;50.758;7.150;2023-04-24T06:21:09;9.79;110.33
7942;HTU21D;4016;50.758;7.150;2023-04-24T06:26:09;9.78;109.91
7942;HTU21D;4016;50.758;7.150;2023-04-24T06:31:10;9.88;110.19
7942;HTU21D;4016;50.758;7.150;2023-04-24T06:36:11;9.96;112.57
7942;HTU21D;4016;50.758;7.150;2023-04-24T06:41:11;9.96;111.70
7942;HTU21D;4016;50.758;7.150;2023-04-24T06:46:13;9.92;112.97
7942;HTU21D;4016;50.758;7.150;2023-04-24T06:51:13;10.00;114.19
7942;HTU21D;4016;50.758;7.150;2023-04-24T06:56:13;9.84;115.52
7942;HTU21D;4016;50.758;7.150;2023-04-24T07:01:14;9.99;113.57
7942;HTU21D;4016;50.758;7.150;2023-04-24T07:06:14;9.84;116.94
7942;HTU21D;4016;50.758;7.150;2023-04-24T07:11:16;9.88;117.99
7942;HTU21D;4016;50.758;7.150;2023-04-24T07:16:16;9.75;118.99
7942;HTU21D;4016;50.758;7.150;2023-04-24T07:21:17;9.74;118.99
7942;HTU21D;4016;50.758;7.150;2023-04-24T07:26:17;9.64;118.99
7942;HTU21D;4016;50.758;7.150;2023-04-24T07:31:18;9.67;118.99
7942;HTU21D;4016;50.758;7.150;2023-04-24T07:36:18;9.76;118.99
7942;HTU21D;4016;50.758;7.150;2023-04-24T07:41:19;9.71;118.99
7942;HTU21D;4016;50.758;7.150;2023-04-24T07:46:20;9.65;118.99
7942;HTU21D;4016;50.758;7.150;2023-04-24T07:51:21;9.65;118.99
7942;HTU21D;4016;50.758;7.150;2023-04-24T07:56:22;9.69;118.99
7942;HTU21D;4016;50.758;7.150;2023-04-24T08:01:22;9.62;118.99
7942;HTU21D;4016;50.758;7.150;2023-04-24T08:06:23;9.56;118.99
7942;HTU21D;4016;50.758;7.150;2023-04-24T08:11:24;9.57;118.99
7942;HTU21D;4016;50.758;7.150;2023-04-24T08:16:25;9.46;118.99
7942;HTU21D;4016;50.758;7.150;2023-04-24T08:21:25;9.41;118.99
7942;HTU21D;4016;50.758;7.150;2023-04-24T08:26:27;9.23;118.99
7942;HTU21D;4016;50.758;7.150;2023-04-24T08:31:27;9.23;118.99
7942;HTU21D;4016;50.758;7.150;2023-04-24T08:36:28;9.03;118.99
7942;HTU21D;4016;50.758;7.150;2023-04-24T08:41:28;8.96;118.99
7942;HTU21D;4016;50.758;7.150;2023-04-24T08:46:30;8.68;118.99
7942;HTU21D;4016;50.758;7.150;2023-04-24T08:51:31;8.42;118.99
7942;HTU21D;4016;50.758;7.150;2023-04-24T08:56:33;8.23;118.99
7942;HTU21D;4016;50.758;7.150;2023-04-24T09:01:34;8.18;118.99
7942;HTU21D;4016;50.758;7.150;2023-04-24T09:06:36;8.16;118.99
7942;HTU21D;4016;50.758;7.150;2023-04-24T09:11:36;8.32;118.99
7942;HTU21D;4016;50.758;7.150;2023-04-24T09:16:37;8.39;118.99
7942;HTU21D;4016;50.758;7.150;2023-04-24T09:21:37;8.36;118.99
7942;HTU21D;4016;50.758;7.150;2023-04-24T09:26:38;8.23;118.99
7942;HTU21D;4016;50.758;7.150;2023-04-24T09:31:39;8.42;118.99
7942;HTU21D;4016;50.758;7.150;2023-04-24T09:36:41;8.35;118.99
7942;HTU21D;4016;50.758;7.150;2023-04-24T09:46:54;8.44;118.99
7942;HTU21D;4016;50.758;7.150;2023-04-24T09:52:08;8.61;118.99
7942;HTU21D;4016;50.758;7.150;2023-04-24T09:57:09;8.71;118.99
7942;HTU21D;4016;50.758;7.150;2023-04-24T10:02:20;8.85;118.99
7942;HTU21D;4016;50.758;7.150;2023-04-24T10:07:20;8.96;118.99
7942;HTU21D;4016;50.758;7.150;2023-04-24T10:12:21;9.00;118.99
7942;HTU21D;4016;50.758;7.150;2023-04-24T10:17:22;9.25;118.99
7942;HTU21D;4016;50.758;7.150;2023-04-24T10:22:23;9.20;118.99
7942;HTU21D;4016;50.758;7.150;2023-04-24T10:27:26;9.24;118.99
7942;HTU21D;4016;50.758;7.150;2023-04-24T10:32:26;9.44;118.99
7942;HTU21D;4016;50.758;7.150;2023-04-24T10:37:27;9.57;118.99
7942;HTU21D;4016;50.758;7.150;2023-04-24T10:42:28;9.77;118.99
7942;HTU21D;4016;50.758;7.150;2023-04-24T10:47:28;9.89;118.99
7942;HTU21D;4016;50.758;7.150;2023-04-24T10:52:47;9.86;118.99
7942;HTU21D;4016;50.758;7.150;2023-04-24T10:58:04;9.79;118.99
7942;HTU21D;4016;50.758;7.150;2023-04-24T11:03:27;10.03;118.99
7942;HTU21D;4016;50.758;7.150;2023-04-24T11:08:31;10.12;118.99
7942;HTU21D;4016;50.758;7.150;2023-04-24T11:34:57;10.58;118.99
7942;HTU21D;4016;50.758;7.150;2023-04-24T11:39:58;10.93;118.99
7942;HTU21D;4016;50.758;7.150;2023-04-24T11:44:59;11.02;118.99
7942;HTU21D;4016;50.758;7.150;2023-04-24T11:50:00;11.24;118.99
7942;HTU21D;4016;50.758;7.150;2023-04-24T11:55:01;10.98;118.99
7942;HTU21D;4016;50.758;7.150;2023-04-24T12:00:03;11.14;118.99
7942;HTU21D;4016;50.758;7.150;2023-04-24T12:05:05;11.59;118.99
7942;HTU21D;4016;50.758;7.150;2023-04-24T12:10:06;11.76;118.99
7942;HTU21D;4016;50.758;7.150;2023-04-24T12:15:08;11.76;117.24
7942;HTU21D;4016;50.758;7.150;2023-04-24T12:20:09;11.56;117.47
7942;HTU21D;4016;50.758;7.150;2023-04-24T12:25:10;11.56;117.25
7942;HTU21D;4016;50.758;7.150;2023-04-24T12:30:15;11.48;118.85
7942;HTU21D;4016;50.758;7.150;2023-04-24T12:35:21;11.44;115.52
7942;HTU21D;4016;50.758;7.150;2023-04-24T12:40:22;11.79;114.83
7942;HTU21D;4016;50.758;7.150;2023-04-24T12:45:25;11.67;113.12
7942;HTU21D;4016;50.758;7.150;2023-04-24T12:50:27;11.68;109.49
7942;HTU21D;4016;50.758;7.150;2023-04-24T12:55:28;11.75;111.16
7942;HTU21D;4016;50.758;7.150;2023-04-24T13:00:28;12.11;112.55
7942;HTU21D;4016;50.758;7.150;2023-04-24T13:05:29;12.33;109.65
7942;HTU21D;4016;50.758;7.150;2023-04-24T13:10:30;12.20;109.52
7942;HTU21D;4016;50.758;7.150;2023-04-24T13:15:30;12.25;111.48
7942;HTU21D;4016;50.758;7.150;2023-04-24T13:20:31;12.28;110.24
7942;HTU21D;4016;50.758;7.150;2023-04-24T13:25:35;12.58;107.01
7942;HTU21D;4016;50.758;7.150;2023-04-24T13:30:36;12.66;101.70
7942;HTU21D;4016;50.758;7.150;2023-04-24T13:35:37;12.64;99.98
7942;HTU21D;4016;50.758;7.150;2023-04-24T13:40:37;12.57;99.83
7942;HTU21D;4016;50.758;7.150;2023-04-24T13:45:37;12.51;98.55
7942;HTU21D;4016;50.758;7.150;2023-04-24T13:50:38;12.60;100.15
7942;HTU21D;4016;50.758;7.150;2023-04-24T13:55:38;13.14;101.33
7942;HTU21D;4016;50.758;7.150;2023-04-24T14:00:39;13.09;99.08
7942;HTU21D;4016;50.758;7.150;2023-04-24T14:05:40;12.81;98.33
7942;HTU21D;4016;50.758;7.150;2023-04-24T14:10:40;12.64;97.51
7942;HTU21D;4016;50.758;7.150;2023-04-24T14:15:41;12.30;101.30
7942;HTU21D;4016;50.758;7.150;2023-04-24T14:20:41;12.27;102.99
7942;HTU21D;4016;50.758;7.150;2023-04-24T14:25:41;12.84;101.25
7942;HTU21D;4016;50.758;7.150;2023-04-24T14:30:42;13.39;96.31
7942;HTU21D;4016;50.758;7.150;2023-04-24T14:35:43;13.53;91.72
7942;HTU21D;4016;50.758;7.150;2023-04-24T14:40:43;13.93;94.54
7942;HTU21D;4016;50.758;7.150;2023-04-24T14:45:44;14.34;85.13
7942;HTU21D;4016;50.758;7.150;2023-04-24T14:50:44;13.64;87.78
7942;HTU21D;4016;50.758;7.150;2023-04-24T14:55:45;13.63;88.96
7942;HTU21D;4016;50.758;7.150;2023-04-24T15:00:45;13.70;89.47
7942;HTU21D;4016;50.758;7.150;2023-04-24T15:05:46;13.44;92.35
7942;HTU21D;4016;50.758;7.150;2023-04-24T15:10:46;13.79;88.82
7942;HTU21D;4016;50.758;7.150;2023-04-24T15:15:47;13.75;85.71
7942;HTU21D;4016;50.758;7.150;2023-04-24T15:20:48;13.73;84.32
7942;HTU21D;4016;50.758;7.150;2023-04-24T15:25:48;13.88;77.63
7942;HTU21D;4016;50.758;7.150;2023-04-24T15:30:49;13.74;80.63
7942;HTU21D;4016;50.758;7.150;2023-04-24T15:35:50;14.22;82.11
7942;HTU21D;4016;50.758;7.150;2023-04-24T15:40:50;14.42;78.37
7942;HTU21D;4016;50.758;7.150;2023-04-24T15:45:51;14.25;73.16
7942;HTU21D;4016;50.758;7.150;2023-04-24T15:50:51;14.43;76.95
7942;HTU21D;4016;50.758;7.150;2023-04-24T15:55:52;14.54;74.35
7942;HTU21D;4016;50.758;7.150;2023-04-24T16:00:52;14.69;75.93
7942;HTU21D;4016;50.758;7.150;2023-04-24T16:05:53;14.21;73.83
7942;HTU21D;4016;50.758;7.150;2023-04-24T16:10:53;14.10;71.84
7942;HTU21D;4016;50.758;7.150;2023-04-24T16:15:54;14.03;76.07
7942;HTU21D;4016;50.758;7.150;2023-04-24T16:20:55;14.09;74.13
7942;HTU21D;4016;50.758;7.150;2023-04-24T16:25:56;13.78;81.66
7942;HTU21D;4016;50.758;7.150;2023-04-24T16:30:57;13.61;85.69
7942;HTU21D;4016;50.758;7.150;2023-04-24T16:35:57;13.54;83.51
7942;HTU21D;4016;50.758;7.150;2023-04-24T16:40:57;13.43;85.52
7942;HTU21D;4016;50.758;7.150;2023-04-24T16:45:58;13.27;82.88
7942;HTU21D;4016;50.758;7.150;2023-04-24T16:50:59;13.25;84.19
7942;HTU21D;4016;50.758;7.150;2023-04-24T16:56:00;13.40;86.98
7942;HTU21D;4016;50.758;7.150;2023-04-24T17:01:00;13.32;79.95
7942;HTU21D;4016;50.758;7.150;2023-04-24T17:06:00;13.25;84.75
7942;HTU21D;4016;50.758;7.150;2023-04-24T17:11:01;12.99;86.67
7942;HTU21D;4016;50.758;7.150;2023-04-24T17:16:01;12.79;91.04
7942;HTU21D;4016;50.758;7.150;2023-04-24T17:21:02;12.73;90.04
7942;HTU21D;4016;50.758;7.150;2023-04-24T17:26:02;12.56;88.62
7942;HTU21D;4016;50.758;7.150;2023-04-24T17:31:03;12.43;91.18
7942;HTU21D;4016;50.758;7.150;2023-04-24T17:36:03;12.34;91.74
7942;HTU21D;4016;50.758;7.150;2023-04-24T17:41:05;12.20;93.59
7942;HTU21D;4016;50.758;7.150;2023-04-24T17:46:06;12.15;90.45
7942;HTU21D;4016;50.758;7.150;2023-04-24T17:51:06;12.03;91.19
7942;HTU21D;4016;50.758;7.150;2023-04-24T17:56:07;12.04;93.30
7942;HTU21D;4016;50.758;7.150;2023-04-24T18:01:08;12.02;91.85
7942;HTU21D;4016;50.758;7.150;2023-04-24T18:06:08;12.03;94.49
7942;HTU21D;4016;50.758;7.150;2023-04-24T18:11:09;11.91;97.70
7942;HTU21D;4016;50.758;7.150;2023-04-24T18:16:09;11.88;101.04
7942;HTU21D;4016;50.758;7.150;2023-04-24T18:21:10;11.97;95.26
7942;HTU21D;4016;50.758;7.150;2023-04-24T18:26:11;12.02;93.85
7942;HTU21D;4016;50.758;7.150;2023-04-24T18:31:16;11.97;95.52
7942;HTU21D;4016;50.758;7.150;2023-04-24T18:36:16;11.86;96.01
7942;HTU21D;4016;50.758;7.150;2023-04-24T18:41:16;11.69;94.68
7942;HTU21D;4016;50.758;7.150;2023-04-24T18:46:17;11.72;93.64
7942;HTU21D;4016;50.758;7.150;2023-04-24T18:51:17;11.55;96.86
7942;HTU21D;4016;50.758;7.150;2023-04-24T18:56:17;11.62;92.11
7942;HTU21D;4016;50.758;7.150;2023-04-24T19:01:18;11.52;93.69
7942;HTU21D;4016;50.758;7.150;2023-04-24T19:06:19;11.67;92.92
7942;HTU21D;4016;50.758;7.150;2023-04-24T19:11:19;11.30;96.29
7942;HTU21D;4016;50.758;7.150;2023-04-24T19:16:20;11.32;95.66
7942;HTU21D;4016;50.758;7.150;2023-04-24T19:21:20;11.17;97.55
7942;HTU21D;4016;50.758;7.150;2023-04-24T19:26:22;11.22;97.88
7942;HTU21D;4016;50.758;7.150;2023-04-24T19:31:26;11.25;96.75
7942;HTU21D;4016;50.758;7.150;2023-04-24T19:36:28;11.14;97.43
7942;HTU21D;4016;50.758;7.150;2023-04-24T19:41:30;11.15;96.32
7942;HTU21D;4016;50.758;7.150;2023-04-24T19:46:30;10.96;96.95
7942;HTU21D;4016;50.758;7.150;2023-04-24T19:51:31;10.72;97.65
7942;HTU21D;4016;50.758;7.150;2023-04-24T19:56:32;10.80;95.80
7942;HTU21D;4016;50.758;7.150;2023-04-24T20:01:33;10.67;96.03
7942;HTU21D;4016;50.758;7.150;2023-04-24T20:06:33;10.68;95.79
7942;HTU21D;4016;50.758;7.150;2023-04-24T20:11:33;10.54;97.90
7942;HTU21D;4016;50.758;7.150;2023-04-24T20:16:34;10.42;98.89
7942;HTU21D;4016;50.758;7.150;2023-04-24T20:21:34;10.62;96.73
7942;HTU21D;4016;50.758;7.150;2023-04-24T20:26:35;10.39;100.01
7942;HTU21D;4016;50.758;7.150;2023-04-24T20:31:36;10.25;99.69
7942;HTU21D;4016;50.758;7.150;2023-04-24T20:36:36;10.24;101.24
7942;HTU21D;4016;50.758;7.150;2023-04-24T20:41:37;10.29;102.81
7942;HTU21D;4016;50.758;7.150;2023-04-24T20:46:37;10.46;99.99
7942;HTU21D;4016;50.758;7.150;2023-04-24T20:51:38;10.16;104.95
7942;HTU21D;4016;50.758;7.150;2023-04-24T20:56:38;10.08;107.08
7942;HTU21D;4016;50.758;7.150;2023-04-24T21:01:38;10.04;107.02
7942;HTU21D;4016;50.758;7.150;2023-04-24T21:06:39;9.94;108.09
7942;HTU21D;4016;50.758;7.150;2023-04-24T21:11:39;10.05;106.81
7942;HTU21D;4016;50.758;7.150;2023-04-24T21:16:40;9.83;108.32
7942;HTU21D;4016;50.758;7.150;2023-04-24T21:21:40;9.70;109.51
7942;HTU21D;4016;50.758;7.150;2023-04-24T21:26:40;9.72;106.51
7942;HTU21D;4016;50.758;7.150;2023-04-24T21:31:41;9.67;107.06
7942;HTU21D;4016;50.758;7.150;2023-04-24T21:36:41;9.48;108.98
7942;HTU21D;4016;50.758;7.150;2023-04-24T21:41:42;9.38;110.10
7942;HTU21D;4016;50.758;7.150;2023-04-24T21:46:42;9.27;109.39
7942;HTU21D;4016;50.758;7.150;2023-04-24T21:51:43;9.10;109.88
7942;HTU21D;4016;50.758;7.150;2023-04-24T21:56:43;9.02;111.06
7942;HTU21D;4016;50.758;7.150;2023-04-24T22:01:44;8.91;111.89
7942;HTU21D;4016;50.758;7.150;2023-04-24T22:06:44;8.82;111.37
7942;HTU21D;4016;50.758;7.150;2023-04-24T22:11:44;8.65;113.58
7942;HTU21D;4016;50.758;7.150;2023-04-24T22:16:45;8.59;113.35
7942;HTU21D;4016;50.758;7.150;2023-04-24T22:21:46;8.55;113.32
7942;HTU21D;4016;50.758;7.150;2023-04-24T22:26:47;8.42;113.15
7942;HTU21D;4016;50.758;7.150;2023-04-24T22:31:47;8.63;111.00
7942;HTU21D;4016;50.758;7.150;2023-04-24T22:36:49;8.32;113.67
7942;HTU21D;4016;50.758;7.150;2023-04-24T22:41:49;8.19;114.81
7942;HTU21D;4016;50.758;7.150;2023-04-24T22:46:50;8.07;116.80
7942;HTU21D;4016;50.758;7.150;2023-04-24T22:51:50;8.04;117.84
7942;HTU21D;4016;50.758;7.150;2023-04-24T22:56:52;8.00;118.79
7942;HTU21D;4016;50.758;7.150;2023-04-24T23:01:52;8.03;118.80
7942;HTU21D;4016;50.758;7.150;2023-04-24T23:06:53;8.12;116.21
7942;HTU21D;4016;50.758;7.150;2023-04-24T23:11:53;8.00;117.13
7942;HTU21D;4016;50.758;7.150;2023-04-24T23:16:54;7.98;116.88
7942;HTU21D;4016;50.758;7.150;2023-04-24T23:21:54;7.90;118.45
7942;HTU21D;4016;50.758;7.150;2023-04-24T23:26:55;7.83;118.99
7942;HTU21D;4016;50.758;7.150;2023-04-24T23:31:55;7.86;118.99
7942;HTU21D;4016;50.758;7.150;2023-04-24T23:36:55;7.86;118.99
7942;HTU21D;4016;50.758;7.150;2023-04-24T23:41:56;7.84;118.99
7942;HTU21D;4016;50.758;7.150;2023-04-24T23:46:57;7.87;118.99
7942;HTU21D;4016;50.758;7.150;2023-04-24T23:51:57;7.81;118.99
7942;HTU21D;4016;50.758;7.150;2023-04-24T23:56:58;7.89;118.99
